Time;durP1;ratioP1;P1;durP2;ratioP2;P2;SDS_P1;SDS_P2;PMS_P1;PMS_P2;Temp;Humidity;BMP_temperature;BMP_pressure;BME280_temperature;BME280_humidity;BME280_pressure;Samples;Min_cycle;Max_cycle;Signal;HPM_P1;HPM_P2
2022/11/24 06:35:30;;;;;;;59.35;31.40;;;;;;;1.66;100.00;100249.28;5011944;28;20156;-64
2022/11/24 06:47:14;;;;;;;60.25;31.60;;;;;;;1.69;100.00;100256.16;5018099;28;20044;-62
2022/11/24 06:49:41;;;;;;;63.15;33.42;;;;;;;1.67;100.00;100263.16;5011170;28;20160;-62
2022/11/24 06:52:08;;;;;;;59.17;31.80;;;;;;;1.63;100.00;100270.16;5019876;28;20132;-62
2022/11/24 06:54:36;;;;;;;60.88;30.20;;;;;;;1.64;100.00;100261.47;5010461;28;20045;-62
2022/11/24 06:57:03;;;;;;;53.78;30.40;;;;;;;1.67;100.00;100260.56;5028203;28;20304;-62
2022/11/24 06:59:30;;;;;;;56.72;30.08;;;;;;;1.66;100.00;100262.28;5026611;28;20076;-62
2022/11/24 07:01:57;;;;;;;54.20;31.02;;;;;;;1.70;100.00;100260.44;5042097;28;20045;-63
2022/11/24 07:04:24;;;;;;;49.85;28.70;;;;;;;1.72;100.00;100259.53;5029407;28;20540;-63
2022/11/24 07:06:52;;;;;;;55.92;30.75;;;;;;;1.75;100.00;100255.97;5039520;28;20064;-63
2022/11/24 07:09:19;;;;;;;56.03;30.85;;;;;;;1.76;100.00;100263.72;5027951;28;20132;-63
2022/11/24 07:11:46;;;;;;;50.80;29.33;;;;;;;1.79;100.00;100267.97;5024254;28;20144;-63
2022/11/24 07:14:13;;;;;;;52.55;29.77;;;;;;;1.82;100.00;100274.84;5024584;28;20140;-63
2022/11/24 07:16:41;;;;;;;54.42;30.38;;;;;;;1.81;100.00;100273.13;5025625;28;20050;-63
2022/11/24 07:19:09;;;;;;;51.88;28.77;;;;;;;1.81;100.00;100283.53;5026488;28;20639;-63
2022/11/24 07:21:36;;;;;;;53.85;29.35;;;;;;;1.81;100.00;100276.56;5027112;28;20073;-63
2022/11/24 07:24:03;;;;;;;48.00;27.70;;;;;;;1.78;100.00;100285.28;5026634;28;20037;-63
2022/11/24 07:26:36;;;;;;;50.83;27.85;;;;;;;1.72;100.00;100279.44;5032263;28;20045;-63
2022/11/24 07:29:04;;;;;;;55.97;30.45;;;;;;;1.76;100.00;100283.66;5029697;28;20534;-61
2022/11/24 07:31:31;;;;;;;50.53;27.88;;;;;;;1.78;100.00;100282.69;5032793;28;20053;-62
2022/11/24 07:33:58;;;;;;;59.58;29.85;;;;;;;1.75;100.00;100293.16;5037737;28;20057;-63
2022/11/24 07:36:25;;;;;;;58.85;30.65;;;;;;;1.73;100.00;100292.34;5048174;28;20059;-62
2022/11/24 07:38:53;;;;;;;52.58;29.73;;;;;;;1.76;100.00;100300.06;5032168;28;20578;-64
2022/11/24 07:41:20;;;;;;;56.15;29.65;;;;;;;1.82;100.00;100304.22;5032970;28;20447;-62
2022/11/24 07:43:48;;;;;;;52.40;28.15;;;;;;;1.85;100.00;100308.50;5031180;28;20045;-64
2022/11/24 07:46:17;;;;;;;52.25;29.45;;;;;;;1.88;100.00;100303.19;5031501;28;20054;-62
2022/11/24 07:48:45;;;;;;;50.85;28.80;;;;;;;1.87;100.00;100302.34;5014483;28;20050;-62
2022/11/24 07:51:12;;;;;;;55.55;29.67;;;;;;;1.91;100.00;100311.75;5027157;28;20065;-65
2022/11/24 07:53:40;;;;;;;58.90;29.75;;;;;;;1.92;100.00;100307.41;5028740;28;20042;-62
2022/11/24 07:56:08;;;;;;;53.38;29.90;;;;;;;1.95;100.00;100315.97;5027163;28;20057;-63
2022/11/24 07:58:36;;;;;;;49.92;28.63;;;;;;;1.96;100.00;100314.22;5028515;28;20092;-63
2022/11/24 08:01:16;;;;;;;48.67;26.80;;;;;;;1.94;100.00;100316.88;5031648;28;20045;-62
2022/11/24 08:03:45;;;;;;;45.03;26.55;;;;;;;1.94;100.00;100310.81;5030313;28;20044;-61
2022/11/24 08:06:12;;;;;;;49.78;28.25;;;;;;;1.98;100.00;100309.81;5031265;28;20141;-62
2022/11/24 08:09:01;;;;;;;54.08;29.65;;;;;;;2.02;100.00;100314.88;5019149;28;20068;-61
2022/11/24 08:11:30;;;;;;;53.65;29.63;;;;;;;2.02;100.00;100308.84;5020838;28;20541;-62
2022/11/24 08:13:57;;;;;;;55.33;30.73;;;;;;;2.03;100.00;100306.22;5031337;28;20049;-62
2022/11/24 08:16:24;;;;;;;52.65;30.92;;;;;;;2.02;100.00;100307.09;5032175;28;20054;-62
2022/11/24 08:18:53;;;;;;;53.25;31.20;;;;;;;2.06;100.00;100309.59;5031952;28;20080;-61
2022/11/24 08:21:24;;;;;;;61.47;31.88;;;;;;;2.09;100.00;100309.53;5028885;28;20113;-61
2022/11/24 08:23:55;;;;;;;50.55;29.15;;;;;;;2.12;100.00;100312.03;5038698;28;20133;-61
2022/11/24 08:26:23;;;;;;;56.03;30.30;;;;;;;2.10;100.00;100327.66;5032280;28;20565;-62
2022/11/24 08:28:56;;;;;;;46.75;26.98;;;;;;;2.15;100.00;100323.16;5031843;28;20049;-63
2022/11/24 08:31:25;;;;;;;49.20;27.90;;;;;;;2.18;100.00;100330.03;5019794;28;20355;-63
2022/11/24 08:33:54;;;;;;;53.55;30.25;;;;;;;2.20;100.00;100323.88;5029908;28;20556;-62
2022/11/24 08:36:22;;;;;;;50.10;29.33;;;;;;;2.24;100.00;100330.69;5028704;28;20057;-61
2022/11/24 08:38:53;;;;;;;53.70;30.52;;;;;;;2.22;100.00;100336.84;5028598;28;20049;-61
2022/11/24 08:41:21;;;;;;;50.00;29.38;;;;;;;2.17;100.00;100333.53;5030748;28;20060;-62
2022/11/24 08:43:48;;;;;;;52.33;28.60;;;;;;;2.20;100.00;100333.41;5030100;28;20069;-62
2022/11/24 08:46:16;;;;;;;51.15;30.10;;;;;;;2.23;100.00;100336.78;5032047;28;20069;-63
2022/11/24 08:48:48;;;;;;;49.00;28.80;;;;;;;2.27;100.00;100337.56;5029106;28;20057;-60
2022/11/24 08:51:17;;;;;;;47.10;28.33;;;;;;;2.23;100.00;100334.19;5032168;28;20071;-62
2022/11/24 08:53:45;;;;;;;45.90;27.33;;;;;;;2.28;100.00;100341.84;5030765;28;20140;-62
2022/11/24 08:56:12;;;;;;;41.13;25.95;;;;;;;2.31;100.00;100336.56;5028881;28;20152;-62
2022/11/24 08:58:40;;;;;;;47.25;25.92;;;;;;;2.28;100.00;100339.25;5025410;28;20115;-63
2022/11/24 09:01:12;;;;;;;42.83;25.73;;;;;;;2.30;100.00;100334.88;5023668;28;20140;-61
2022/11/24 09:03:43;;;;;;;43.45;26.77;;;;;;;2.36;100.00;100336.44;5029059;28;20054;-63
2022/11/24 09:06:23;;;;;;;43.80;27.13;;;;;;;2.40;100.00;100338.03;5030251;28;20053;-61
2022/11/24 09:08:53;;;;;;;43.20;26.85;;;;;;;2.45;100.00;100334.41;5030411;28;20049;-62
2022/11/24 09:11:20;;;;;;;44.63;27.05;;;;;;;2.47;100.00;100340.38;5030463;28;20080;-63
2022/11/24 09:13:47;;;;;;;42.08;25.67;;;;;;;2.50;100.00;100345.50;5027872;28;20121;-62
2022/11/24 09:16:17;;;;;;;50.72;30.02;;;;;;;2.52;100.00;100343.72;5012436;28;20050;-63
2022/11/24 09:18:45;;;;;;;52.70;32.35;;;;;;;2.57;100.00;100347.91;5028520;28;20045;-62
2022/11/24 09:21:14;;;;;;;56.17;32.95;;;;;;;2.59;100.00;100353.94;5028500;28;20045;-62
2022/11/24 09:23:42;;;;;;;49.63;29.98;;;;;;;2.61;100.00;100363.38;5029298;28;20104;-61
2022/11/24 09:26:15;;;;;;;47.28;29.20;;;;;;;2.63;100.00;100371.13;5027870;28;20140;-62
2022/11/24 09:28:43;;;;;;;50.05;29.23;;;;;;;2.66;100.00;100373.66;5045137;28;20077;-62
2022/11/24 09:31:12;;;;;;;43.65;27.45;;;;;;;2.62;100.00;100377.22;5031490;28;20152;-62
2022/11/24 09:33:41;;;;;;;44.38;28.02;;;;;;;2.66;100.00;100373.66;5020899;28;20054;-62
2022/11/24 09:36:08;;;;;;;49.85;30.02;;;;;;;2.53;100.00;100371.41;5030793;28;20144;-61
2022/11/24 09:38:35;;;;;;;49.50;28.85;;;;;;;2.48;100.00;100370.69;5035444;28;20148;-62
2022/11/24 09:41:21;;;;;;;51.47;30.60;;;;;;;2.52;100.00;100369.72;5035148;28;20066;-63
2022/11/24 09:44:13;;;;;;;49.95;31.30;;;;;;;2.59;100.00;100372.13;5025205;28;20046;-63
2022/11/24 09:46:49;;;;;;;50.85;30.15;;;;;;;2.66;100.00;100379.69;5032610;28;20135;-62
2022/11/24 09:49:23;;;;;;;51.25;28.90;;;;;;;2.70;100.00;100372.63;5021872;28;20112;-64
2022/11/24 09:51:51;;;;;;;51.55;31.23;;;;;;;2.72;100.00;100368.25;5027819;28;20120;-64
2022/11/24 09:54:25;;;;;;;53.10;30.55;;;;;;;2.75;100.00;100376.81;5035170;28;20140;-63
2022/11/24 09:56:52;;;;;;;53.13;31.05;;;;;;;2.79;100.00;100387.94;5032236;28;20052;-64
2022/11/24 09:59:23;;;;;;;54.15;30.90;;;;;;;2.83;100.00;100392.16;5033358;28;20080;-64
2022/11/24 10:01:51;;;;;;;58.70;32.53;;;;;;;2.86;100.00;100399.88;5032329;28;20061;-64
2022/11/24 10:04:21;;;;;;;49.65;31.40;;;;;;;2.93;100.00;100395.34;5033015;28;20060;-64
2022/11/24 10:07:10;;;;;;;52.60;31.27;;;;;;;2.99;100.00;100390.78;5042507;28;20055;-64
2022/11/24 10:10:09;;;;;;;60.13;32.78;;;;;;;3.01;100.00;100394.19;5031496;28;20502;-63
2022/11/24 10:12:51;;;;;;;53.10;30.98;;;;;;;3.00;100.00;100397.69;5028051;28;20136;-63
2022/11/24 10:15:23;;;;;;;51.33;30.52;;;;;;;3.07;100.00;100390.56;5017213;28;20056;-63
2022/11/24 10:18:13;;;;;;;48.97;30.05;;;;;;;3.13;100.00;100381.69;5027321;28;20132;-63
2022/11/24 10:21:05;;;;;;;47.20;29.55;;;;;;;3.24;100.00;100388.25;5008470;28;20060;-64
2022/11/24 10:23:59;;;;;;;46.03;29.52;;;;;;;3.28;100.00;100387.22;5024830;28;20050;-63
2022/11/24 10:26:40;;;;;;;43.47;27.00;;;;;;;3.35;100.00;100385.31;5017499;28;20061;-64
2022/11/24 10:29:35;;;;;;;41.95;27.63;;;;;;;3.46;99.18;100392.75;5028601;28;20065;-62
2022/11/24 10:32:05;;;;;;;45.33;28.15;;;;;;;3.51;99.60;100386.50;5045099;28;20128;-64
2022/11/24 10:35:12;;;;;;;38.90;24.90;;;;;;;3.63;99.55;100400.84;5026676;28;20076;-63
2022/11/24 10:37:49;;;;;;;42.65;26.10;;;;;;;3.74;99.00;100397.88;5027691;28;20056;-64
2022/11/24 10:40:24;;;;;;;39.50;26.17;;;;;;;3.80;98.75;100398.50;5032160;28;20079;-64
2022/11/24 10:43:11;;;;;;;41.58;26.17;;;;;;;3.86;98.41;100407.00;5026997;28;20062;-63
2022/11/24 10:45:39;;;;;;;41.17;26.13;;;;;;;3.92;99.15;100399.00;5031487;28;20063;-63
2022/11/24 10:48:20;;;;;;;38.17;25.60;;;;;;;3.94;98.28;100402.38;5034292;28;20585;-63
2022/11/24 10:50:47;;;;;;;40.08;26.02;;;;;;;3.95;98.40;100399.72;5032149;28;20045;-64
2022/11/24 10:53:34;;;;;;;37.38;24.38;;;;;;;3.99;98.71;100395.25;5035380;28;20141;-64
2022/11/24 10:56:03;;;;;;;42.90;27.00;;;;;;;4.03;98.39;100396.84;5031046;28;20045;-63
2022/11/24 10:58:36;;;;;;;44.67;27.83;;;;;;;4.03;98.57;100389.03;5034029;28;20088;-63
2022/11/24 11:01:13;;;;;;;39.28;26.42;;;;;;;4.10;98.04;100394.84;5028392;28;20148;-64
2022/11/24 11:03:47;;;;;;;42.58;27.98;;;;;;;4.17;98.13;100398.97;5031861;28;20145;-64
2022/11/24 11:06:21;;;;;;;44.15;28.05;;;;;;;4.21;97.67;100397.94;5033503;28;20126;-64
2022/11/24 11:08:49;;;;;;;41.92;26.65;;;;;;;4.24;97.50;100403.06;5024246;28;20046;-63
2022/11/24 11:11:38;;;;;;;49.45;29.23;;;;;;;4.33;96.84;100407.94;5030251;28;20054;-63
2022/11/24 11:14:07;;;;;;;44.00;29.20;;;;;;;4.43;96.14;100411.03;5031940;28;20050;-64
2022/11/24 11:16:34;;;;;;;45.35;29.63;;;;;;;4.47;96.16;100410.88;5024376;28;20063;-64
2022/11/24 11:19:04;;;;;;;42.42;28.35;;;;;;;4.54;95.98;100414.09;5029644;28;20478;-64
2022/11/24 11:21:59;;;;;;;42.10;28.45;;;;;;;4.78;95.56;100417.53;5025718;28;20041;-64
2022/11/24 11:24:28;;;;;;;43.75;28.20;;;;;;;4.85;95.01;100415.53;5010347;28;20060;-64
2022/11/24 11:27:01;;;;;;;38.35;26.67;;;;;;;4.88;94.72;100412.81;5034259;28;20071;-64
2022/11/24 11:29:29;;;;;;;43.78;27.80;;;;;;;4.92;94.87;100407.41;5030282;28;20229;-63
2022/11/24 11:32:22;;;;;;;36.67;25.55;;;;;;;4.99;94.75;100403.66;5025876;28;20057;-63
2022/11/24 11:35:11;;;;;;;44.67;26.85;;;;;;;5.15;95.20;100403.91;5017984;28;20058;-64
2022/11/24 11:37:39;;;;;;;37.97;26.73;;;;;;;5.30;94.86;100397.19;5025552;28;20068;-63
2022/11/24 11:40:13;;;;;;;42.17;28.30;;;;;;;5.31;94.81;100401.50;5023279;28;20069;-63
2022/11/24 11:42:46;;;;;;;44.45;27.40;;;;;;;5.38;94.68;100395.13;5025571;28;20057;-63
2022/11/24 11:45:36;;;;;;;43.88;27.85;;;;;;;5.43;94.47;100395.78;5022188;28;20128;-62
2022/11/24 11:48:09;;;;;;;44.75;28.48;;;;;;;5.43;94.25;100403.63;5028177;28;20161;-63
2022/11/24 11:50:45;;;;;;;42.75;28.08;;;;;;;5.42;94.11;100407.16;5022704;28;20053;-62
2022/11/24 11:53:45;;;;;;;46.13;28.75;;;;;;;5.38;94.06;100400.34;5023625;28;20488;-63
2022/11/24 11:56:32;;;;;;;43.45;28.83;;;;;;;5.42;93.82;100399.31;5020902;28;20072;-63
2022/11/24 11:59:24;;;;;;;46.63;28.08;;;;;;;5.63;94.03;100394.97;5022953;28;20089;-62
2022/11/24 12:02:19;;;;;;;42.00;27.20;;;;;;;5.99;93.93;100395.19;5025089;28;20124;-62
2022/11/24 12:04:58;;;;;;;39.57;27.00;;;;;;;6.35;93.16;100404.94;5020946;28;20045;-62
2022/11/24 12:07:47;;;;;;;43.38;30.45;;;;;;;6.73;92.02;100405.78;5032112;28;20136;-63
2022/11/24 12:10:40;;;;;;;37.65;25.70;;;;;;;7.00;90.42;100405.41;5024952;28;20049;-63
2022/11/24 12:13:32;;;;;;;44.60;31.08;;;;;;;7.33;88.41;100408.16;5025561;28;20084;-63
2022/11/24 12:16:29;;;;;;;41.42;28.25;;;;;;;7.75;85.96;100399.09;5013343;28;20050;-63
2022/11/24 12:18:59;;;;;;;38.38;27.50;;;;;;;7.95;83.64;100392.84;5016635;28;20095;-61
2022/11/24 12:21:41;;;;;;;43.88;28.63;;;;;;;8.09;82.68;100396.44;5022385;28;20099;-63
2022/11/24 12:24:16;;;;;;;41.35;29.15;;;;;;;8.09;81.75;100400.81;5018608;28;20149;-62
2022/11/24 12:26:49;;;;;;;38.53;28.00;;;;;;;8.07;82.26;100398.28;5033795;28;20057;-61
2022/11/24 12:29:41;;;;;;;38.47;28.70;;;;;;;7.92;80.07;100404.31;5021068;28;20083;-62
2022/11/24 13:15:15;;;;;;;35.88;24.77;;;;;;;6.84;88.53;100427.09;5023196;28;20056;-61
2022/11/24 13:27:14;;;;;;;35.33;23.70;;;;;;;7.12;89.44;100432.78;5027711;28;20104;-61
2022/11/24 13:29:42;;;;;;;35.17;25.05;;;;;;;7.09;89.93;100437.22;5024353;28;20132;-61
2022/11/24 13:32:19;;;;;;;36.67;25.80;;;;;;;7.07;90.13;100441.69;5026904;28;20055;-64
2022/11/24 13:34:53;;;;;;;46.28;30.13;;;;;;;6.97;90.39;100450.88;5024016;28;20620;-62
2022/11/24 13:37:24;;;;;;;39.72;26.52;;;;;;;6.97;91.00;100444.81;5023353;28;20076;-59
2022/11/24 13:40:21;;;;;;;40.25;29.23;;;;;;;6.92;90.95;100446.78;5026168;28;20136;-61
2022/11/24 13:42:55;;;;;;;42.70;26.92;;;;;;;6.93;90.90;100451.09;5023212;28;20462;-61
2022/11/24 13:45:40;;;;;;;37.58;25.27;;;;;;;6.93;90.51;100457.19;5030284;28;20049;-62
2022/11/24 13:48:19;;;;;;;39.80;27.15;;;;;;;6.83;90.57;100459.38;5017435;28;20084;-61
2022/11/24 13:50:53;;;;;;;36.13;24.98;;;;;;;6.87;90.40;100454.00;5027895;28;20137;-62
2022/11/24 13:53:39;;;;;;;37.33;25.05;;;;;;;6.89;89.84;100463.50;5024842;28;20149;-62
2022/11/24 13:56:12;;;;;;;40.92;26.75;;;;;;;6.88;90.13;100450.47;5024359;28;20046;-63
2022/11/24 13:59:15;;;;;;;36.95;24.45;;;;;;;6.87;90.58;100469.72;5025551;28;20058;-62
2022/11/24 14:01:45;;;;;;;38.22;25.10;;;;;;;6.82;90.38;100473.38;5008053;28;20049;-62
2022/11/24 14:04:20;;;;;;;39.92;26.17;;;;;;;6.81;90.37;100478.69;5028116;28;20049;-62
2022/11/24 14:07:11;;;;;;;43.15;27.52;;;;;;;6.67;89.89;100483.72;5025906;28;20867;-62
2022/11/24 14:09:44;;;;;;;38.15;25.17;;;;;;;6.58;90.48;100483.19;5027115;28;20461;-60
2022/11/24 14:12:21;;;;;;;39.72;26.73;;;;;;;6.58;90.18;100495.44;5026342;28;20077;-61
2022/11/24 14:14:50;;;;;;;36.97;26.38;;;;;;;6.59;89.61;100492.75;5022413;28;20088;-61
2022/11/24 14:17:22;;;;;;;37.17;26.42;;;;;;;6.56;89.44;100494.63;5024569;28;20081;-63
2022/11/24 14:19:52;;;;;;;40.03;26.85;;;;;;;6.53;89.53;100506.09;5008843;28;20107;-63
2022/11/24 14:22:33;;;;;;;42.72;26.85;;;;;;;6.51;90.02;100510.53;5025661;28;20128;-62
2022/11/24 14:25:01;;;;;;;40.75;25.98;;;;;;;6.48;89.97;100517.66;5022911;28;20140;-63
2022/11/24 18:58:17;;;;;;;46.38;29.38;;;;;;;4.88;96.79;100677.13;4937576;28;20071;-79
2022/11/24 19:00:45;;;;;;;40.47;27.85;;;;;;;4.82;97.12;100677.34;4948120;28;20536;-77
2022/11/24 19:03:12;;;;;;;43.92;29.00;;;;;;;4.85;97.35;100677.22;4936350;28;20039;-75
2022/11/24 19:05:40;;;;;;;42.63;27.88;;;;;;;4.88;97.44;100678.88;4951668;28;20242;-79
2022/11/24 19:08:07;;;;;;;41.50;27.98;;;;;;;4.93;98.17;100675.19;4943388;28;20075;-76
2022/11/24 19:10:38;;;;;;;47.50;29.50;;;;;;;4.97;97.83;100676.78;4939819;28;20052;-76
2022/11/24 19:13:05;;;;;;;44.33;29.02;;;;;;;4.98;97.82;100675.03;4928888;28;20071;-76
2022/11/24 19:15:33;;;;;;;44.00;28.63;;;;;;;4.97;97.74;100675.94;4944468;28;20098;-76
2022/11/24 19:18:01;;;;;;;42.83;27.73;;;;;;;4.96;97.36;100680.31;4942983;28;20054;-75
2022/11/24 19:20:28;;;;;;;42.67;28.95;;;;;;;4.96;97.62;100680.31;4963077;28;20064;-74
2022/11/24 19:27:52;;;;;;;45.83;30.75;;;;;;;4.94;97.34;100679.50;4948446;28;20054;-75
2022/11/24 19:44:23;;;;;;;43.67;26.40;;;;;;;4.92;96.56;100685.69;4965763;28;20041;-75
2022/11/24 19:55:40;;;;;;;41.78;27.55;;;;;;;4.78;96.85;100707.03;4942946;28;20568;-75
2022/11/24 19:58:35;;;;;;;45.47;28.95;;;;;;;4.72;97.41;100715.03;4934448;28;20079;-76
2022/11/24 20:02:01;;;;;;;39.55;26.25;;;;;;;4.66;97.28;100710.88;5044821;28;20049;-76
2022/11/24 20:04:29;;;;;;;44.95;27.23;;;;;;;4.66;97.22;100710.88;5054200;28;20084;-76
2022/11/24 20:10:30;;;;;;;41.80;26.95;;;;;;;4.67;96.89;100719.56;5055914;28;20492;-76
2022/11/24 20:14:26;;;;;;;45.22;29.45;;;;;;;4.66;97.25;100723.06;5052728;28;20545;-74
2022/11/24 20:17:19;;;;;;;52.42;28.90;;;;;;;4.56;97.15;100733.81;5051916;28;20483;-77
2022/11/24 20:19:46;;;;;;;47.22;30.00;;;;;;;4.47;97.31;100731.50;5036188;28;20052;-75
2022/11/24 20:31:06;;;;;;;44.30;28.65;;;;;;;4.30;97.43;100742.44;5020029;28;20045;-74
2022/11/24 20:50:26;;;;;;;50.42;29.75;;;;;;;4.23;96.76;100750.50;5047179;28;20634;-75
2022/11/24 21:01:47;;;;;;;57.80;32.75;;;;;;;4.12;97.18;100742.16;5038938;28;20495;-75
2022/11/24 22:25:28;;;;;;;57.55;30.95;;;;;;;3.51;98.59;100797.72;4985068;28;20059;-79
2022/11/24 23:04:23;;;;;;;45.03;28.52;;;;;;;3.75;98.78;100810.97;5053520;28;20095;-76
2022/11/24 23:16:46;;;;;;;;;;;;;;;;;;;;;
2022/11/24 23:43:03;;;;;;;51.22;29.65;;;;;;;3.71;98.69;100814.53;5051283;28;20103;-63
